Time;durP1;ratioP1;P1;durP2;ratioP2;P2;SDS_P1;SDS_P2;PMS_P1;PMS_P2;Temp;Humidity;BMP_temperature;BMP_pressure;BME280_temperature;BME280_humidity;BME280_pressure;Samples;Min_cycle;Max_cycle;Signal;HPM_P1;HPM_P2
2022/11/27 00:00:44;;;;;;;84.68;45.63;;;6.50;99.90;;;;;;4993879;28;20105;-65
2022/11/27 00:03:10;;;;;;;95.75;50.55;;;6.60;99.90;;;;;;4994443;28;20034;-66
2022/11/27 00:05:36;;;;;;;89.57;47.22;;;6.50;99.90;;;;;;4994215;28;20042;-66
2022/11/27 00:08:02;;;;;;;96.35;53.85;;;6.40;99.90;;;;;;4993131;28;20030;-66
2022/11/27 00:10:27;;;;;;;103.88;51.28;;;6.40;99.90;;;;;;4993951;28;20027;-66
2022/11/27 00:12:53;;;;;;;101.88;55.28;;;6.40;99.90;;;;;;4990779;28;20035;-65
2022/11/27 00:15:19;;;;;;;107.30;55.22;;;6.40;99.90;;;;;;4994948;28;20050;-65
2022/11/27 00:17:45;;;;;;;98.30;51.53;;;6.40;99.90;;;;;;4995380;28;20050;-66
2022/11/27 00:20:12;;;;;;;98.18;51.55;;;6.40;99.90;;;;;;4995483;28;20034;-69
2022/11/27 00:22:38;;;;;;;100.10;53.22;;;6.40;99.90;;;;;;4995269;28;20038;-70
2022/11/27 00:25:05;;;;;;;92.78;49.70;;;6.40;99.90;;;;;;4995317;28;20025;-70
2022/11/27 00:27:30;;;;;;;100.10;52.22;;;6.50;99.90;;;;;;4995355;28;20026;-70
2022/11/27 00:29:56;;;;;;;91.20;50.78;;;6.50;99.90;;;;;;4994946;28;20038;-70
2022/11/27 00:32:22;;;;;;;99.18;51.95;;;6.60;99.90;;;;;;4993031;28;20018;-69
2022/11/27 00:34:48;;;;;;;77.07;49.22;;;6.60;99.90;;;;;;4989675;28;20030;-70
2022/11/27 00:37:14;;;;;;;86.65;49.55;;;6.70;99.90;;;;;;4994355;28;20038;-67
2022/11/27 00:39:40;;;;;;;84.03;48.58;;;6.70;99.90;;;;;;4991883;28;20571;-66
2022/11/27 00:42:06;;;;;;;83.72;46.33;;;6.80;99.90;;;;;;4993102;28;20038;-70
2022/11/27 00:44:33;;;;;;;81.72;46.95;;;6.80;99.90;;;;;;4994009;28;20038;-66
2022/11/27 00:46:59;;;;;;;81.57;47.75;;;6.90;99.90;;;;;;4994757;28;20053;-67
2022/11/27 00:49:24;;;;;;;88.90;48.45;;;6.90;99.90;;;;;;4995402;28;20460;-67
2022/11/27 00:51:50;;;;;;;79.40;43.92;;;6.90;99.90;;;;;;4981030;28;20457;-65
2022/11/27 00:54:16;;;;;;;92.88;48.60;;;6.90;99.90;;;;;;4994496;28;20018;-67
2022/11/27 00:56:42;;;;;;;83.80;45.00;;;7.00;99.90;;;;;;4994324;28;20049;-67
2022/11/27 00:59:09;;;;;;;85.68;46.00;;;7.00;99.90;;;;;;4990203;28;20191;-67
2022/11/27 01:01:40;;;;;;;75.80;46.80;;;7.00;99.90;;;;;;5008050;28;20421;-66
2022/11/27 01:04:09;;;;;;;83.65;47.05;;;7.00;99.90;;;;;;4993597;28;20042;-67
2022/11/27 01:06:36;;;;;;;80.07;49.05;;;7.00;99.90;;;;;;4992951;28;20169;-69
2022/11/27 01:09:02;;;;;;;78.38;47.72;;;7.00;99.90;;;;;;4992545;28;20431;-66
2022/11/27 01:11:31;;;;;;;92.40;50.83;;;6.90;99.90;;;;;;4989897;28;20026;-66
2022/11/27 01:14:00;;;;;;;94.50;54.08;;;6.80;99.90;;;;;;4994484;28;20035;-67
2022/11/27 01:16:28;;;;;;;88.25;55.60;;;6.90;99.90;;;;;;4992179;28;20038;-67
2022/11/27 01:18:57;;;;;;;88.50;54.75;;;6.70;99.90;;;;;;4993002;28;20030;-69
2022/11/27 01:21:24;;;;;;;92.50;56.92;;;6.70;99.90;;;;;;4992788;28;20027;-67
2022/11/27 01:23:50;;;;;;;94.07;54.72;;;6.70;99.90;;;;;;4992888;28;20054;-67
2022/11/27 01:26:17;;;;;;;95.28;57.33;;;6.80;99.90;;;;;;4993281;28;20026;-68
2022/11/27 01:28:43;;;;;;;89.32;55.10;;;6.70;99.90;;;;;;4992868;28;20026;-67
2022/11/27 01:31:15;;;;;;;96.40;57.90;;;6.70;99.90;;;;;;4992990;28;20022;-66
2022/11/27 01:33:41;;;;;;;93.85;55.47;;;6.80;99.90;;;;;;4992380;28;20521;-66
2022/11/27 01:36:10;;;;;;;87.32;54.10;;;6.80;99.90;;;;;;4993653;28;20085;-67
2022/11/27 01:38:36;;;;;;;89.90;55.35;;;6.80;99.90;;;;;;4992868;28;20034;-66
2022/11/27 01:41:12;;;;;;;98.00;59.58;;;6.80;99.90;;;;;;4992341;28;20044;-67
2022/11/27 01:43:47;;;;;;;100.57;61.00;;;6.90;99.90;;;;;;4992179;28;20038;-68
2022/11/27 01:46:34;;;;;;;96.53;59.85;;;6.90;99.90;;;;;;4992370;28;20023;-68
2022/11/27 01:49:20;;;;;;;96.57;56.63;;;6.90;99.90;;;;;;4993561;28;20032;-67
2022/11/27 01:51:54;;;;;;;95.85;57.97;;;6.80;99.90;;;;;;4993318;28;20026;-66
2022/11/27 01:54:25;;;;;;;93.38;58.85;;;6.80;99.90;;;;;;4981309;28;20041;-67
2022/11/27 01:56:55;;;;;;;91.32;54.03;;;6.80;99.90;;;;;;4993903;28;20108;-67
2022/11/27 01:59:22;;;;;;;94.20;57.92;;;6.80;99.90;;;;;;4993512;28;20041;-67
2022/11/27 02:01:48;;;;;;;95.55;61.13;;;6.80;99.90;;;;;;4992545;28;20029;-67
2022/11/27 02:04:14;;;;;;;94.72;58.03;;;6.90;99.90;;;;;;4993057;28;20492;-66
2022/11/27 02:06:39;;;;;;;97.97;59.10;;;6.80;99.90;;;;;;4991727;28;20410;-68
2022/11/27 02:09:06;;;;;;;94.72;57.55;;;6.90;99.90;;;;;;4994250;28;20034;-69
2022/11/27 02:12:14;;;;;;;96.10;61.22;;;6.90;99.90;;;;;;4991020;28;20029;-66
2022/11/27 02:14:46;;;;;;;103.93;65.32;;;6.90;99.90;;;;;;4949166;28;20027;-67
2022/11/27 02:17:24;;;;;;;95.55;62.60;;;6.90;99.90;;;;;;4950454;29;20137;-66
2022/11/27 02:19:49;;;;;;;102.95;64.93;;;6.90;99.90;;;;;;4950840;29;20097;-66
2022/11/27 02:22:38;;;;;;;101.55;64.40;;;6.90;99.90;;;;;;4950335;29;20123;-66
2022/11/27 02:25:38;;;;;;;104.60;66.40;;;6.90;99.90;;;;;;4950395;29;20038;-67
2022/11/27 02:28:30;;;;;;;114.13;71.43;;;6.90;99.90;;;;;;4950602;28;20087;-65
2022/11/27 02:31:09;;;;;;;106.63;71.40;;;6.80;99.90;;;;;;4950819;29;20037;-68
2022/11/27 02:33:41;;;;;;;105.63;69.05;;;6.80;99.90;;;;;;4950005;29;20035;-65
2022/11/27 02:36:11;;;;;;;115.10;75.67;;;6.80;99.90;;;;;;4950597;29;20044;-65
2022/11/27 02:38:46;;;;;;;119.57;73.35;;;6.80;99.90;;;;;;4948953;29;20344;-67
2022/11/27 02:41:27;;;;;;;115.35;75.65;;;6.80;99.90;;;;;;4945753;29;20763;-68
2022/11/27 02:43:54;;;;;;;114.97;72.20;;;6.90;99.90;;;;;;4946478;29;20039;-67
2022/11/27 02:46:20;;;;;;;116.07;72.97;;;6.90;99.90;;;;;;4950491;29;20427;-66
2022/11/27 02:48:53;;;;;;;116.85;71.55;;;6.90;99.90;;;;;;4975192;28;20489;-66
2022/11/27 02:51:26;;;;;;;;;;;6.90;99.90;;;;;;4990678;28;20038;-67
2022/11/27 02:53:56;;;;;;;108.65;70.68;;;6.90;99.90;;;;;;4987549;28;19914;-69
2022/11/27 02:56:25;;;;;;;121.50;75.82;;;6.90;99.90;;;;;;4987454;28;20117;-67
2022/11/27 02:58:55;;;;;;;110.97;71.50;;;6.80;99.90;;;;;;4991622;28;20117;-65
2022/11/27 03:01:23;;;;;;;122.20;79.05;;;6.90;99.90;;;;;;4984353;28;20638;-65
2022/11/27 03:03:54;;;;;;;121.95;81.72;;;6.80;99.90;;;;;;4990210;28;20034;-66
2022/11/27 03:06:37;;;;;;;120.15;78.93;;;6.70;99.90;;;;;;4984806;28;20420;-69
2022/11/27 03:09:07;;;;;;;120.32;78.80;;;6.70;99.90;;;;;;4989499;28;20053;-71
2022/11/27 03:11:34;;;;;;;124.05;76.75;;;6.70;99.90;;;;;;4992605;28;20035;-66
2022/11/27 03:14:04;;;;;;;111.35;73.07;;;6.80;99.90;;;;;;4979515;28;20026;-66
2022/11/27 03:16:42;;;;;;;117.85;74.25;;;6.70;99.90;;;;;;4992148;28;20054;-67
2022/11/27 03:19:17;;;;;;;110.75;67.57;;;6.70;99.90;;;;;;4992021;28;20029;-66
2022/11/27 03:21:47;;;;;;;112.93;68.00;;;6.60;99.90;;;;;;4992366;28;20361;-66
2022/11/27 03:24:13;;;;;;;113.53;68.55;;;6.60;99.90;;;;;;4991219;28;20034;-68
2022/11/27 03:26:40;;;;;;;112.38;72.72;;;6.60;99.90;;;;;;4981022;28;20129;-66
2022/11/27 03:29:11;;;;;;;110.43;71.65;;;6.50;99.90;;;;;;4990646;28;20117;-66
2022/11/27 03:31:37;;;;;;;110.30;70.35;;;6.50;99.90;;;;;;4993800;28;20026;-66
2022/11/27 03:34:04;;;;;;;116.22;72.00;;;6.50;99.90;;;;;;4995574;28;20073;-65
2022/11/27 03:36:30;;;;;;;119.07;75.75;;;6.50;99.90;;;;;;4996194;28;20026;-67
2022/11/27 03:38:56;;;;;;;114.82;73.50;;;6.60;99.90;;;;;;4991798;28;20026;-67
2022/11/27 03:41:38;;;;;;;100.88;70.75;;;6.60;99.90;;;;;;4985667;28;20170;-67
2022/11/27 03:44:21;;;;;;;119.23;72.60;;;6.70;99.90;;;;;;4993294;28;20080;-68
2022/11/27 03:46:47;;;;;;;114.25;73.43;;;6.70;99.90;;;;;;4995321;28;20543;-67
2022/11/27 03:49:39;;;;;;;114.15;72.50;;;6.80;99.90;;;;;;4995870;28;20030;-69
2022/11/27 03:52:24;;;;;;;117.88;72.57;;;6.80;99.90;;;;;;4991991;28;20030;-66
2022/11/27 03:55:08;;;;;;;118.68;74.68;;;6.90;99.90;;;;;;4996079;28;20130;-66
2022/11/27 03:57:41;;;;;;;119.72;74.20;;;6.90;99.90;;;;;;4995796;28;20434;-67
2022/11/27 04:00:09;;;;;;;124.22;78.57;;;6.90;99.90;;;;;;4995831;28;20499;-66
2022/11/27 04:02:46;;;;;;;119.65;74.47;;;6.80;99.90;;;;;;4995925;28;20029;-67
2022/11/27 04:05:13;;;;;;;117.55;79.15;;;6.90;99.90;;;;;;4995595;28;20393;-66
2022/11/27 04:07:40;;;;;;;123.47;75.57;;;6.90;99.90;;;;;;4991844;28;20110;-68
2022/11/27 04:10:07;;;;;;;132.75;77.90;;;6.90;99.90;;;;;;4995737;28;20041;-67
2022/11/27 04:12:33;;;;;;;126.57;77.25;;;6.90;99.90;;;;;;4995362;28;20153;-68
2022/11/27 04:14:59;;;;;;;115.43;73.78;;;6.90;99.90;;;;;;4995922;28;20042;-66
2022/11/27 04:17:25;;;;;;;110.57;72.00;;;6.90;99.90;;;;;;4993750;28;20121;-67
2022/11/27 04:19:51;;;;;;;113.55;75.80;;;6.90;99.90;;;;;;4993965;28;20497;-67
2022/11/27 04:22:17;;;;;;;117.95;72.90;;;6.90;99.90;;;;;;4993844;28;20022;-66
2022/11/27 04:24:43;;;;;;;108.45;73.32;;;7.00;99.90;;;;;;4993744;28;20056;-68
2022/11/27 04:27:08;;;;;;;115.95;73.53;;;7.00;99.90;;;;;;4993831;28;20110;-69
2022/11/27 04:29:35;;;;;;;112.80;74.47;;;7.00;99.90;;;;;;4994386;28;20037;-70
2022/11/27 04:32:01;;;;;;;112.70;73.35;;;7.10;99.90;;;;;;4995019;28;20551;-68
2022/11/27 04:34:27;;;;;;;110.32;69.80;;;7.00;99.90;;;;;;4995033;28;20377;-69
2022/11/27 04:36:54;;;;;;;102.07;67.78;;;6.90;99.90;;;;;;4994399;28;20042;-69
2022/11/27 04:39:20;;;;;;;107.22;70.60;;;7.00;99.90;;;;;;4994728;28;20037;-67
2022/11/27 04:41:46;;;;;;;105.93;70.53;;;7.10;99.90;;;;;;4995063;28;20031;-71
2022/11/27 04:44:12;;;;;;;104.38;66.32;;;7.10;99.90;;;;;;4981138;28;20042;-67
2022/11/27 04:46:38;;;;;;;103.20;65.85;;;7.10;99.90;;;;;;4994944;28;20033;-66
2022/11/27 04:49:04;;;;;;;110.40;72.30;;;7.10;99.90;;;;;;4994735;28;20382;-68
2022/11/27 04:51:30;;;;;;;108.60;70.13;;;7.10;99.90;;;;;;4994893;28;20028;-68
2022/11/27 04:53:56;;;;;;;106.47;68.45;;;7.10;99.90;;;;;;4980490;28;20042;-68
2022/11/27 04:56:22;;;;;;;99.80;67.60;;;7.20;99.90;;;;;;4993971;28;20030;-66
2022/11/27 04:58:48;;;;;;;105.10;68.68;;;7.20;99.90;;;;;;4994999;28;20049;-71
2022/11/27 05:01:14;;;;;;;106.63;68.28;;;7.20;99.90;;;;;;4994677;28;20022;-67
2022/11/27 05:03:40;;;;;;;109.57;70.70;;;7.20;99.90;;;;;;4994646;28;20037;-68
2022/11/27 05:06:06;;;;;;;102.57;68.45;;;7.20;99.90;;;;;;4994184;28;20076;-68
2022/11/27 05:08:32;;;;;;;100.30;64.85;;;7.20;99.90;;;;;;4994100;28;20018;-68
2022/11/27 05:11:06;;;;;;;104.03;70.32;;;7.20;99.90;;;;;;4994225;28;20161;-67
2022/11/27 05:13:32;;;;;;;105.20;69.93;;;7.20;99.90;;;;;;4994524;28;20018;-68
2022/11/27 05:15:58;;;;;;;103.47;69.85;;;7.20;99.90;;;;;;4994323;28;20416;-68
2022/11/27 05:18:24;;;;;;;107.03;69.00;;;7.10;99.90;;;;;;4980586;28;20049;-68
2022/11/27 05:21:01;;;;;;;99.65;66.88;;;7.10;99.90;;;;;;4993988;28;20026;-65
2022/11/27 05:23:28;;;;;;;105.60;66.93;;;7.10;99.90;;;;;;4993656;28;20031;-68
2022/11/27 05:25:54;;;;;;;114.03;70.10;;;7.10;99.90;;;;;;4993704;28;20487;-67
2022/11/27 05:28:21;;;;;;;106.97;71.93;;;7.10;99.90;;;;;;4988193;28;20431;-68
2022/11/27 05:30:47;;;;;;;115.57;72.47;;;7.10;99.90;;;;;;4986436;28;20704;-68
2022/11/27 05:33:14;;;;;;;107.82;71.30;;;7.10;99.90;;;;;;4983625;28;20097;-68
2022/11/27 05:35:39;;;;;;;108.22;71.47;;;7.10;99.90;;;;;;4993901;28;20026;-67
2022/11/27 05:38:05;;;;;;;107.88;69.93;;;7.10;99.90;;;;;;4993799;28;20121;-67
2022/11/27 05:40:31;;;;;;;108.28;70.10;;;7.00;99.90;;;;;;4993910;28;20472;-67
2022/11/27 05:42:57;;;;;;;106.43;68.55;;;7.00;99.90;;;;;;4992232;28;20063;-67
2022/11/27 05:45:23;;;;;;;101.00;66.97;;;7.10;99.90;;;;;;4993816;28;20485;-68
2022/11/27 05:47:49;;;;;;;96.10;66.28;;;7.10;99.90;;;;;;4991142;28;20445;-70
2022/11/27 05:50:14;;;;;;;101.65;68.47;;;7.10;99.90;;;;;;4987722;28;20389;-67
2022/11/27 05:52:40;;;;;;;98.78;67.13;;;7.10;99.90;;;;;;4993654;28;20030;-67
2022/11/27 05:55:06;;;;;;;107.78;68.45;;;7.20;99.90;;;;;;4993412;28;20026;-69
2022/11/27 05:57:32;;;;;;;96.28;63.92;;;7.20;99.90;;;;;;4988592;28;20062;-66
2022/11/27 05:59:58;;;;;;;102.28;66.28;;;7.20;99.90;;;;;;4993455;28;20053;-67
2022/11/27 06:02:25;;;;;;;99.93;64.40;;;7.30;99.90;;;;;;4992873;28;20030;-68
2022/11/27 06:04:51;;;;;;;93.30;64.32;;;7.30;99.90;;;;;;4993020;28;20034;-67
2022/11/27 06:07:17;;;;;;;103.18;68.50;;;7.30;99.90;;;;;;4993196;28;20037;-68
2022/11/27 06:09:43;;;;;;;107.00;68.57;;;7.20;99.90;;;;;;4993163;28;20026;-67
2022/11/27 06:12:09;;;;;;;94.07;66.15;;;7.20;99.90;;;;;;4995979;28;20641;-67
2022/11/27 06:14:35;;;;;;;105.72;69.00;;;7.30;99.90;;;;;;5005825;28;20073;-67
2022/11/27 06:17:02;;;;;;;103.18;69.97;;;7.30;99.90;;;;;;4992845;28;20046;-66
2022/11/27 06:19:28;;;;;;;101.63;68.68;;;7.30;99.90;;;;;;4993258;28;20547;-67
2022/11/27 06:21:53;;;;;;;97.50;67.47;;;7.20;99.90;;;;;;4995644;28;20109;-72
2022/11/27 06:24:19;;;;;;;108.35;69.93;;;7.20;99.90;;;;;;5002604;28;20034;-69
2022/11/27 06:26:46;;;;;;;100.80;69.13;;;7.20;99.90;;;;;;4995328;28;20022;-70
2022/11/27 06:29:11;;;;;;;104.13;65.80;;;7.20;99.90;;;;;;4991944;28;20026;-66
2022/11/27 06:31:38;;;;;;;109.70;66.20;;;7.20;99.90;;;;;;4992876;28;20027;-67
2022/11/27 06:34:04;;;;;;;100.32;65.53;;;7.20;99.90;;;;;;4992713;28;20022;-66
2022/11/27 06:36:33;;;;;;;108.68;69.18;;;7.30;99.90;;;;;;4992669;28;20014;-66
2022/11/27 06:38:59;;;;;;;98.97;65.80;;;7.30;99.90;;;;;;4990582;28;20034;-67
2022/11/27 06:41:26;;;;;;;107.82;69.50;;;7.30;99.90;;;;;;4992769;28;20027;-66
2022/11/27 06:43:53;;;;;;;105.15;67.15;;;7.30;99.90;;;;;;4992780;28;20169;-68
2022/11/27 06:46:22;;;;;;;104.65;69.53;;;7.30;99.90;;;;;;4992761;28;20101;-66
2022/11/27 06:48:50;;;;;;;99.20;68.00;;;7.30;99.90;;;;;;4992544;28;20026;-69
2022/11/27 06:51:20;;;;;;;112.57;71.68;;;7.30;99.90;;;;;;4987782;28;20035;-67
2022/11/27 06:53:46;;;;;;;106.70;69.75;;;7.30;99.90;;;;;;4992754;28;20438;-67
2022/11/27 06:56:14;;;;;;;114.57;73.00;;;7.20;99.90;;;;;;4992098;28;20057;-68
2022/11/27 06:58:40;;;;;;;109.05;71.57;;;7.20;99.90;;;;;;4992192;28;20057;-66
2022/11/27 07:01:09;;;;;;;129.65;70.32;;;7.20;99.90;;;;;;4989356;28;20031;-67
2022/11/27 07:03:35;;;;;;;137.27;74.45;;;7.20;99.90;;;;;;4990812;28;20049;-67
2022/11/27 07:06:03;;;;;;;119.68;75.80;;;7.20;99.90;;;;;;4984612;28;20041;-68
2022/11/27 07:08:30;;;;;;;124.28;73.60;;;7.10;99.90;;;;;;4976842;28;20035;-67
2022/11/27 07:11:11;;;;;;;120.65;77.90;;;7.20;99.90;;;;;;4987182;28;20023;-66
2022/11/27 07:13:37;;;;;;;112.07;72.90;;;7.00;99.90;;;;;;4988021;28;20052;-68
2022/11/27 07:16:06;;;;;;;114.78;73.07;;;6.90;99.90;;;;;;4992526;28;20457;-69
2022/11/27 07:18:44;;;;;;;119.55;72.07;;;7.00;99.90;;;;;;4992236;28;20038;-66
2022/11/27 07:21:10;;;;;;;122.70;75.30;;;7.10;99.90;;;;;;4992147;28;20037;-66
2022/11/27 07:23:37;;;;;;;133.30;77.55;;;7.10;99.90;;;;;;4984658;28;20026;-66
2022/11/27 07:26:12;;;;;;;129.38;76.90;;;7.20;99.90;;;;;;4992178;28;20097;-66
2022/11/27 07:28:38;;;;;;;121.13;74.82;;;7.20;99.90;;;;;;4992393;28;20026;-66
2022/11/27 07:31:04;;;;;;;125.93;73.35;;;7.30;99.90;;;;;;4988556;28;20031;-68
2022/11/27 07:33:31;;;;;;;125.55;72.63;;;7.30;99.90;;;;;;4986708;28;20045;-66
2022/11/27 07:36:04;;;;;;;121.68;71.43;;;7.30;99.90;;;;;;4991819;28;20030;-66
2022/11/27 07:38:29;;;;;;;;;;;7.40;99.90;;;;;;4991856;28;20045;-72
2022/11/27 07:40:59;;;;;;;125.38;70.85;;;7.50;99.90;;;;;;4991995;28;19910;-66
2022/11/27 07:43:25;;;;;;;118.95;72.47;;;7.50;99.90;;;;;;4991795;28;20104;-65
2022/11/27 07:45:50;;;;;;;131.90;75.05;;;7.50;99.90;;;;;;4992396;28;20023;-66
2022/11/27 07:48:16;;;;;;;130.82;72.80;;;7.60;99.90;;;;;;4991344;28;20481;-72
2022/11/27 07:50:42;;;;;;;134.15;75.15;;;7.60;99.90;;;;;;4991357;28;20026;-66
2022/11/27 07:53:08;;;;;;;118.10;69.38;;;7.70;99.90;;;;;;4991504;28;20040;-67
2022/11/27 07:55:36;;;;;;;118.70;70.65;;;7.70;99.90;;;;;;4990933;28;20066;-66
2022/11/27 07:58:02;;;;;;;124.00;73.53;;;7.70;99.90;;;;;;4991003;28;20412;-69
2022/11/27 08:00:28;;;;;;;125.00;71.25;;;7.80;99.90;;;;;;4985967;28;20101;-66
2022/11/27 08:02:53;;;;;;;131.00;72.78;;;7.70;99.90;;;;;;4989435;28;20473;-67
2022/11/27 08:05:19;;;;;;;137.63;74.50;;;7.70;99.90;;;;;;4990144;28;20541;-67
2022/11/27 08:07:45;;;;;;;134.07;79.70;;;7.60;99.90;;;;;;4986618;28;20026;-67
2022/11/27 08:10:11;;;;;;;127.72;74.55;;;7.70;99.90;;;;;;4990825;28;20030;-66
2022/11/27 08:12:36;;;;;;;142.25;78.22;;;7.70;99.90;;;;;;4991295;28;20037;-68
2022/11/27 08:15:04;;;;;;;135.43;76.32;;;7.60;99.90;;;;;;4994318;28;20022;-66
2022/11/27 08:17:30;;;;;;;140.63;78.03;;;7.60;99.90;;;;;;4993821;28;20042;-66
2022/11/27 08:19:56;;;;;;;145.43;76.57;;;7.40;99.90;;;;;;4994260;28;20779;-66
2022/11/27 08:22:22;;;;;;;135.07;74.13;;;7.40;99.90;;;;;;4994018;28;20125;-66
2022/11/27 08:24:47;;;;;;;135.80;76.40;;;7.40;99.90;;;;;;4988322;28;20517;-66
2022/11/27 08:27:17;;;;;;;138.23;79.18;;;7.40;99.90;;;;;;4986406;28;20038;-66
2022/11/27 08:29:42;;;;;;;148.45;83.10;;;7.40;99.90;;;;;;4993477;28;20030;-66
2022/11/27 08:32:09;;;;;;;143.93;81.55;;;7.30;99.90;;;;;;4990149;28;20821;-67
2022/11/27 08:34:36;;;;;;;148.32;83.25;;;7.40;99.90;;;;;;4998877;28;20030;-67
2022/11/27 08:37:04;;;;;;;174.27;89.80;;;7.50;99.90;;;;;;4979581;28;20022;-67
2022/11/27 08:39:29;;;;;;;167.27;90.78;;;7.30;99.90;;;;;;4993624;28;20133;-67
2022/11/27 08:41:55;;;;;;;168.90;93.95;;;7.40;99.90;;;;;;4994517;28;20528;-67
2022/11/27 08:44:21;;;;;;;175.57;94.95;;;7.50;99.90;;;;;;4993815;28;20045;-68
2022/11/27 08:46:47;;;;;;;154.60;87.50;;;7.40;99.90;;;;;;4989501;28;20034;-67
2022/11/27 08:49:13;;;;;;;166.35;87.47;;;7.30;99.90;;;;;;4994243;28;20088;-68
2022/11/27 08:51:39;;;;;;;122.65;75.57;;;7.30;99.90;;;;;;4993689;28;20019;-67
2022/11/27 08:54:05;;;;;;;132.20;73.55;;;7.20;99.90;;;;;;4995131;28;20385;-72
2022/11/27 08:56:31;;;;;;;115.72;69.63;;;7.30;99.90;;;;;;5004681;28;20027;-68
2022/11/27 08:58:57;;;;;;;124.55;70.22;;;7.30;99.90;;;;;;4992244;28;20026;-67
2022/11/27 09:01:29;;;;;;;125.78;73.40;;;7.30;99.90;;;;;;4980315;28;20041;-68
2022/11/27 09:03:55;;;;;;;129.10;74.25;;;7.40;99.90;;;;;;4989143;28;20034;-68
2022/11/27 09:06:23;;;;;;;113.75;64.20;;;7.40;99.90;;;;;;4995220;28;20030;-71
2022/11/27 09:08:50;;;;;;;137.52;73.18;;;7.50;99.90;;;;;;4994960;28;20350;-71
2022/11/27 09:11:18;;;;;;;134.98;72.88;;;7.50;99.90;;;;;;4994045;28;20484;-67
2022/11/27 09:13:45;;;;;;;119.65;66.95;;;7.40;99.90;;;;;;4982078;28;20038;-71
2022/11/27 09:16:13;;;;;;;116.35;63.10;;;7.50;99.90;;;;;;4993628;28;20026;-68
2022/11/27 09:18:39;;;;;;;116.30;64.63;;;7.40;99.90;;;;;;4993823;28;20125;-66
2022/11/27 09:21:07;;;;;;;117.18;63.35;;;7.40;99.90;;;;;;4993963;28;20042;-68
2022/11/27 09:23:36;;;;;;;104.25;59.90;;;7.50;99.90;;;;;;4991938;28;20044;-67
2022/11/27 09:26:04;;;;;;;113.93;60.22;;;7.50;99.90;;;;;;4993445;28;20030;-68
2022/11/27 09:28:31;;;;;;;120.18;65.60;;;7.50;99.90;;;;;;4991788;28;20112;-67
2022/11/27 09:30:59;;;;;;;123.55;64.32;;;7.40;99.90;;;;;;4990311;28;20026;-67
2022/11/27 09:33:27;;;;;;;121.90;64.10;;;7.30;99.90;;;;;;4983643;28;20081;-67
2022/11/27 09:35:53;;;;;;;101.45;63.88;;;7.30;99.90;;;;;;4993315;28;20365;-70
2022/11/27 09:38:19;;;;;;;107.60;64.80;;;7.30;99.90;;;;;;4993040;28;20037;-67
2022/11/27 09:40:55;;;;;;;121.13;65.32;;;7.30;99.90;;;;;;4993575;28;20018;-68
2022/11/27 09:43:29;;;;;;;120.05;63.00;;;7.30;99.90;;;;;;4992271;28;20393;-69
2022/11/27 09:46:00;;;;;;;114.93;61.88;;;7.40;99.90;;;;;;4993360;28;20021;-70
2022/11/27 09:48:35;;;;;;;113.72;59.08;;;7.40;99.90;;;;;;4993291;28;20113;-68
2022/11/27 09:51:05;;;;;;;114.93;60.10;;;7.40;99.90;;;;;;4975621;28;20046;-70
2022/11/27 09:54:09;;;;;;;110.47;60.65;;;7.50;99.90;;;;;;4978214;28;20542;-68
2022/11/27 09:56:35;;;;;;;103.93;54.65;;;7.60;99.90;;;;;;4905116;29;20063;-67
2022/11/27 09:59:03;;;;;;;97.45;55.00;;;7.60;99.90;;;;;;4913622;29;20113;-68
2022/11/27 10:01:31;;;;;;;102.47;57.97;;;7.50;99.90;;;;;;4913423;29;20064;-70
2022/11/27 10:03:59;;;;;;;112.57;58.97;;;7.60;99.90;;;;;;4910403;29;20041;-71
2022/11/27 10:06:33;;;;;;;108.45;60.25;;;7.50;99.90;;;;;;4901601;29;20032;-69
2022/11/27 10:09:31;;;;;;;118.22;63.13;;;7.60;99.90;;;;;;4913701;29;20044;-68
2022/11/27 10:12:23;;;;;;;110.25;60.88;;;7.50;99.90;;;;;;4895989;29;20059;-68
2022/11/27 10:15:12;;;;;;;108.55;62.25;;;7.50;99.90;;;;;;4912950;29;20666;-68
2022/11/27 10:18:00;;;;;;;114.65;60.88;;;7.40;99.90;;;;;;4912778;29;20519;-67
2022/11/27 10:20:43;;;;;;;109.28;58.15;;;7.40;99.90;;;;;;4913799;29;20032;-69
2022/11/27 10:23:09;;;;;;;116.07;59.88;;;7.50;99.90;;;;;;4899586;29;20044;-67
2022/11/27 10:25:58;;;;;;;109.90;58.72;;;7.50;99.90;;;;;;4906608;29;20072;-69
2022/11/27 10:28:42;;;;;;;102.38;59.33;;;7.50;99.90;;;;;;4986403;28;20034;-70
2022/11/27 10:31:18;;;;;;;101.95;59.95;;;7.50;99.90;;;;;;4990233;28;20034;-69
2022/11/27 10:33:50;;;;;;;114.85;60.25;;;7.30;99.90;;;;;;4973932;28;20065;-68
2022/11/27 10:36:31;;;;;;;103.22;56.90;;;7.30;99.90;;;;;;4993306;28;20034;-70
2022/11/27 10:38:58;;;;;;;99.03;56.05;;;7.40;99.90;;;;;;4999642;28;20105;-71
2022/11/27 10:41:33;;;;;;;95.20;54.25;;;7.30;99.90;;;;;;4993655;28;20018;-70
2022/11/27 10:44:17;;;;;;;99.70;54.45;;;7.40;99.90;;;;;;4991794;28;20050;-69
2022/11/27 10:46:43;;;;;;;98.32;56.00;;;7.40;99.90;;;;;;4990213;28;20023;-72
2022/11/27 10:49:09;;;;;;;107.47;54.42;;;7.40;99.90;;;;;;4989623;28;20026;-72
2022/11/27 10:51:38;;;;;;;86.85;49.50;;;7.30;99.90;;;;;;4991886;28;20030;-69
2022/11/27 10:54:11;;;;;;;88.75;50.72;;;7.30;99.90;;;;;;4983329;28;20026;-72
2022/11/27 10:56:37;;;;;;;88.57;51.55;;;7.30;99.90;;;;;;4988250;28;20057;-70
2022/11/27 10:59:08;;;;;;;96.75;48.88;;;7.30;99.90;;;;;;4987237;28;20057;-69
2022/11/27 11:01:49;;;;;;;94.70;50.92;;;7.30;99.90;;;;;;4988472;28;20022;-69
2022/11/27 11:04:21;;;;;;;93.75;52.47;;;7.20;99.90;;;;;;4990945;28;20050;-69
2022/11/27 11:06:51;;;;;;;93.72;54.13;;;7.30;99.90;;;;;;4992264;28;20092;-69
2022/11/27 11:09:23;;;;;;;92.60;51.20;;;7.40;99.90;;;;;;4988843;28;20031;-68
2022/11/27 11:11:49;;;;;;;94.13;46.83;;;7.30;99.90;;;;;;4990593;28;20022;-69
2022/11/27 11:14:24;;;;;;;92.90;51.00;;;7.30;99.90;;;;;;4991888;28;20275;-68
2022/11/27 11:16:51;;;;;;;95.07;49.90;;;7.40;99.90;;;;;;4992012;28;20046;-69
2022/11/27 11:19:37;;;;;;;88.25;49.22;;;7.40;99.90;;;;;;4982662;28;20635;-70
2022/11/27 11:22:12;;;;;;;76.68;47.63;;;7.40;99.90;;;;;;4993656;28;20030;-69
2022/11/27 11:24:41;;;;;;;87.93;47.10;;;7.40;99.90;;;;;;4990256;28;20038;-69
2022/11/27 11:27:31;;;;;;;85.68;48.35;;;7.40;99.90;;;;;;4984752;28;20093;-70
2022/11/27 11:30:03;;;;;;;87.22;49.90;;;7.40;99.90;;;;;;4991510;28;20033;-69
2022/11/27 11:32:38;;;;;;;83.17;50.27;;;7.40;99.90;;;;;;4990389;28;20126;-70
2022/11/27 11:35:22;;;;;;;88.03;51.35;;;7.40;99.90;;;;;;4996419;28;20036;-71
2022/11/27 11:37:49;;;;;;;89.03;49.03;;;7.30;99.90;;;;;;4997091;28;20084;-72
2022/11/27 11:40:23;;;;;;;92.78;51.20;;;7.40;99.90;;;;;;4991332;28;20031;-71
2022/11/27 11:43:03;;;;;;;82.95;48.00;;;7.40;99.90;;;;;;4991785;28;20059;-67
2022/11/27 11:45:31;;;;;;;84.38;46.65;;;7.30;99.90;;;;;;4993309;28;20030;-69
2022/11/27 11:48:00;;;;;;;92.15;49.28;;;7.30;99.90;;;;;;4994146;28;20026;-72
2022/11/27 11:50:35;;;;;;;85.55;46.60;;;7.20;99.90;;;;;;4995527;28;20028;-68
2022/11/27 11:53:27;;;;;;;76.25;46.63;;;7.20;99.90;;;;;;4993565;28;20027;-70
2022/11/27 11:56:12;;;;;;;92.28;50.90;;;7.10;99.90;;;;;;4995425;28;20038;-70
2022/11/27 11:58:43;;;;;;;89.78;49.63;;;7.20;99.90;;;;;;4993996;28;20038;-68
2022/11/27 12:01:35;;;;;;;81.15;45.92;;;7.20;99.90;;;;;;4998362;28;20019;-70
2022/11/27 12:04:26;;;;;;;86.35;46.50;;;7.20;99.90;;;;;;4996612;28;20072;-68
2022/11/27 12:06:52;;;;;;;83.32;46.83;;;7.30;99.90;;;;;;4915445;29;20036;-69
2022/11/27 12:09:38;;;;;;;77.18;45.22;;;7.20;99.90;;;;;;4914808;29;20091;-70
2022/11/27 12:12:46;;;;;;;82.88;46.90;;;7.20;99.90;;;;;;4915280;29;20146;-68
2022/11/27 12:15:25;;;;;;;76.45;38.25;;;7.20;99.90;;;;;;4927633;29;20036;-70
2022/11/27 12:18:03;;;;;;;74.15;39.70;;;7.30;99.90;;;;;;4920844;29;20108;-68
2022/11/27 12:20:46;;;;;;;71.82;38.55;;;7.40;99.90;;;;;;4915155;29;20127;-69
2022/11/27 12:23:27;;;;;;;79.93;42.90;;;7.40;99.90;;;;;;4915209;29;20107;-69
2022/11/27 12:26:26;;;;;;;80.60;43.58;;;7.20;99.90;;;;;;4899767;29;20028;-69
2022/11/27 12:29:02;;;;;;;80.20;44.42;;;7.20;99.90;;;;;;4908552;29;20064;-69
2022/11/27 12:31:58;;;;;;;74.78;43.05;;;7.20;99.90;;;;;;4915143;29;20578;-71
2022/11/27 12:34:33;;;;;;;84.60;45.03;;;7.30;99.90;;;;;;4915600;29;20122;-69
2022/11/27 12:37:11;;;;;;;80.28;42.95;;;7.30;99.90;;;;;;4912838;29;20560;-73
2022/11/27 12:40:09;;;;;;;82.53;46.20;;;7.50;99.90;;;;;;4912928;29;20042;-71
2022/11/27 12:42:37;;;;;;;90.45;46.22;;;7.60;99.90;;;;;;4870583;29;20045;-68
2022/11/27 12:45:18;;;;;;;78.63;43.47;;;7.60;99.90;;;;;;4951026;29;20053;-70
2022/11/27 12:48:07;;;;;;;80.03;45.20;;;7.70;99.90;;;;;;4951420;29;20505;-68